Time;durP1;ratioP1;P1;durP2;ratioP2;P2;SDS_P1;SDS_P2;PMS_P1;PMS_P2;Temp;Humidity;BMP_temperature;BMP_pressure;BME280_temperature;BME280_humidity;BME280_pressure;Samples;Min_cycle;Max_cycle;Signal;HPM_P1;HPM_P2
2023/09/17 00:00:27;;;;;;;23.97;22.67;;;;;;;18.22;100.00;101482.03;4945321;29;20475;-41
2023/09/17 00:02:56;;;;;;;25.47;23.77;;;;;;;18.14;100.00;101483.19;4944930;28;20468;-42
2023/09/17 00:05:24;;;;;;;24.10;22.80;;;;;;;18.09;100.00;101484.94;4934283;29;20543;-42
2023/09/17 00:07:53;;;;;;;27.40;25.70;;;;;;;18.04;100.00;101482.09;4941794;29;20559;-44
2023/09/17 00:10:22;;;;;;;28.73;26.73;;;;;;;17.99;100.00;101479.25;4934145;29;20496;-43
2023/09/17 00:12:53;;;;;;;26.53;24.73;;;;;;;17.95;100.00;101478.06;4934379;29;20456;-41
2023/09/17 00:15:21;;;;;;;28.17;26.30;;;;;;;17.91;100.00;101479.56;4934144;29;20468;-46
2023/09/17 00:17:49;;;;;;;27.67;25.77;;;;;;;17.86;100.00;101480.22;4931456;29;20496;-42
2023/09/17 00:20:17;;;;;;;29.33;27.57;;;;;;;17.81;100.00;101474.69;4933984;29;20440;-42
2023/09/17 00:22:44;;;;;;;28.90;27.23;;;;;;;17.76;100.00;101477.25;4934172;29;20504;-44
2023/09/17 00:25:13;;;;;;;31.57;29.33;;;;;;;17.71;100.00;101492.47;4933770;29;20480;-42
2023/09/17 00:27:41;;;;;;;32.20;30.17;;;;;;;17.64;100.00;101485.28;4934682;29;20464;-47
2023/09/17 00:30:10;;;;;;;31.20;29.20;;;;;;;17.59;100.00;101495.91;4933360;29;20448;-43
2023/09/17 00:32:38;;;;;;;34.17;31.97;;;;;;;17.54;100.00;101493.06;4927664;29;20889;-45
2023/09/17 00:35:07;;;;;;;33.20;31.10;;;;;;;17.50;100.00;101493.72;4924192;29;20437;-45
2023/09/17 00:37:34;;;;;;;34.00;31.97;;;;;;;17.44;100.00;101490.00;4933533;29;20472;-46
2023/09/17 00:40:03;;;;;;;38.50;35.90;;;;;;;17.40;100.00;101496.91;4932639;29;20849;-45
2023/09/17 00:42:34;;;;;;;37.63;35.33;;;;;;;17.34;100.00;101489.72;4927537;29;20460;-43
2023/09/17 00:45:02;;;;;;;35.43;33.20;;;;;;;17.31;100.00;101489.34;4933917;29;20476;-45
2023/09/17 00:47:31;;;;;;;34.93;33.00;;;;;;;17.25;100.00;101487.53;4925748;29;20836;-43
2023/09/17 00:50:00;;;;;;;40.63;37.53;;;;;;;17.17;100.00;101486.75;4933410;29;20487;-48
2023/09/17 00:52:28;;;;;;;37.57;35.50;;;;;;;17.11;100.00;101476.06;4934090;29;20523;-44
2023/09/17 00:54:57;;;;;;;39.47;37.23;;;;;;;17.06;100.00;101478.56;4925811;29;20444;-40
2023/09/17 00:57:24;;;;;;;40.87;38.53;;;;;;;16.98;100.00;101481.56;4933682;29;20460;-46
2023/09/17 00:59:54;;;;;;;41.23;38.63;;;;;;;16.93;100.00;101478.72;4933574;29;20448;-42
2023/09/17 01:02:24;;;;;;;45.27;42.30;;;;;;;16.88;100.00;101476.66;4933372;29;20468;-41
2023/09/17 01:04:53;;;;;;;47.00;44.03;;;;;;;16.82;100.00;101482.94;4933639;29;20476;-43
2023/09/17 01:07:21;;;;;;;45.67;42.83;;;;;;;16.76;100.00;101483.81;4925227;29;20448;-41
2023/09/17 01:09:51;;;;;;;46.80;44.10;;;;;;;16.72;100.00;101488.00;4933384;29;20943;-42
2023/09/17 01:12:20;;;;;;;51.67;48.80;;;;;;;16.67;100.00;101484.28;4933538;29;20988;-43
2023/09/17 01:14:47;;;;;;;51.10;48.10;;;;;;;16.61;100.00;101485.97;4933787;29;20443;-45
2023/09/17 01:17:16;;;;;;;52.97;50.07;;;;;;;16.57;100.00;101485.63;4933282;28;20539;-47
2023/09/17 01:19:44;;;;;;;51.33;48.73;;;;;;;16.51;100.00;101486.47;4933386;29;20445;-44
2023/09/17 01:22:18;;;;;;;56.90;53.80;;;;;;;16.49;100.00;101488.53;4933566;29;20527;-43
2023/09/17 01:24:54;;;;;;;54.00;50.57;;;;;;;16.47;100.00;101484.41;4933649;29;20482;-42
2023/09/17 01:27:24;;;;;;;51.70;49.00;;;;;;;16.49;100.00;101483.13;4934715;29;23178;-42
2023/09/17 01:29:52;;;;;;;59.57;56.37;;;;;;;16.52;100.00;101489.94;4933128;29;20445;-42
2023/09/17 01:32:20;;;;;;;60.83;57.53;;;;;;;16.55;100.00;101498.44;4934039;29;20458;-41
2023/09/17 01:34:52;;;;;;;68.77;64.60;;;;;;;16.59;100.00;101496.16;4937233;29;20479;-42
2023/09/17 01:37:26;;;;;;;68.20;64.07;;;;;;;16.64;100.00;101498.19;4936652;29;20440;-42
2023/09/17 01:39:57;;;;;;;82.17;76.80;;;;;;;16.67;100.00;101501.28;4936949;29;20448;-42
2023/09/17 01:42:27;;;;;;;87.10;81.07;;;;;;;16.73;100.00;101499.56;4929170;29;20885;-42
2023/09/17 01:44:57;;;;;;;99.63;90.80;;;;;;;16.78;100.00;101505.97;4944978;29;20472;-41
2023/09/17 01:47:26;;;;;;;97.03;90.33;;;;;;;16.81;100.00;101507.41;4929175;29;20448;-47
2023/09/17 01:49:57;;;;;;;113.97;98.13;;;;;;;16.86;100.00;101504.88;4936788;29;20448;-42
2023/09/17 01:52:26;;;;;;;101.23;94.00;;;;;;;16.86;100.00;101502.19;4936656;29;20500;-43
2023/09/17 01:54:54;;;;;;;100.67;91.73;;;;;;;16.87;100.00;101504.66;4936711;29;20828;-44
2023/09/17 01:57:22;;;;;;;95.23;88.53;;;;;;;16.86;100.00;101505.69;4935744;29;21007;-44
2023/09/17 01:59:51;;;;;;;113.93;99.33;;;;;;;16.88;100.00;101502.78;4936615;29;20451;-42
2023/09/17 02:02:19;;;;;;;213.73;124.43;;;;;;;16.87;100.00;101504.66;4928037;29;20464;-41
2023/09/17 02:04:47;;;;;;;104.07;96.37;;;;;;;16.88;100.00;101506.28;4936692;29;20865;-44
2023/09/17 02:07:16;;;;;;;160.03;117.40;;;;;;;16.87;100.00;101501.97;4933988;29;20445;-42
2023/09/17 02:09:43;;;;;;;110.53;103.83;;;;;;;16.89;100.00;101504.44;4931082;29;20536;-41
2023/09/17 02:12:11;;;;;;;158.67;127.30;;;;;;;16.90;100.00;101509.63;4936197;29;20984;-42
2023/09/17 02:14:39;;;;;;;147.97;125.10;;;;;;;16.91;100.00;101510.41;4936621;29;20448;-42
2023/09/17 02:17:09;;;;;;;137.40;123.90;;;;;;;16.93;100.00;101519.13;4935478;29;20448;-40
2023/09/17 02:19:42;;;;;;;110.40;104.10;;;;;;;16.92;100.00;101510.22;4936155;29;20466;-41
2023/09/17 02:22:09;;;;;;;119.17;112.37;;;;;;;16.93;100.00;101503.78;4936059;29;20464;-41
2023/09/17 02:24:37;;;;;;;129.60;123.20;;;;;;;16.92;100.00;101510.22;4936129;29;20447;-42
2023/09/17 02:27:05;;;;;;;145.37;134.07;;;;;;;16.91;100.00;101508.56;4937627;29;20454;-44
2023/09/17 02:29:32;;;;;;;147.90;134.20;;;;;;;16.91;100.00;101505.03;4936007;29;20441;-43
2023/09/17 02:32:00;;;;;;;141.90;133.10;;;;;;;16.89;100.00;101507.97;4936120;29;20464;-43
2023/09/17 02:34:29;;;;;;;129.47;122.40;;;;;;;16.87;100.00;101515.44;4936149;29;20445;-44
2023/09/17 02:36:57;;;;;;;142.30;133.10;;;;;;;16.86;100.00;101510.25;4935878;29;20437;-42
2023/09/17 02:39:25;;;;;;;143.37;136.17;;;;;;;16.83;100.00;101511.53;4953923;28;20536;-42
2023/09/17 02:41:53;;;;;;;135.53;127.93;;;;;;;16.80;100.00;101517.34;4948278;28;20547;-45
2023/09/17 02:44:21;;;;;;;140.07;130.90;;;;;;;16.78;100.00;101514.06;4953147;28;20439;-42
2023/09/17 02:46:48;;;;;;;143.37;134.17;;;;;;;16.76;100.00;101521.50;4954486;29;20989;-40
2023/09/17 02:49:16;;;;;;;136.07;128.87;;;;;;;16.73;100.00;101508.47;4926481;29;20461;-43
2023/09/17 02:51:45;;;;;;;151.30;140.23;;;;;;;16.74;100.00;101514.69;4930161;29;20547;-45
2023/09/17 02:54:14;;;;;;;160.80;147.30;;;;;;;16.71;100.00;101523.22;4935326;29;20476;-44
2023/09/17 02:56:42;;;;;;;150.23;139.43;;;;;;;16.68;100.00;101526.34;4935815;29;20447;-42
2023/09/17 02:59:11;;;;;;;169.73;153.80;;;;;;;16.67;100.00;101520.13;4934718;28;20471;-43
2023/09/17 03:01:40;;;;;;;140.67;133.63;;;;;;;16.68;100.00;101519.09;4940150;28;20467;-43
2023/09/17 03:04:08;;;;;;;146.30;136.50;;;;;;;16.69;100.00;101511.84;4946524;28;20440;-43
2023/09/17 03:06:36;;;;;;;131.60;125.27;;;;;;;16.68;100.00;101511.00;4954742;28;20566;-42
2023/09/17 03:09:10;;;;;;;138.80;131.20;;;;;;;16.67;100.00;101516.59;4945851;28;20467;-45
2023/09/17 03:11:39;;;;;;;154.60;144.40;;;;;;;16.66;100.00;101514.97;4954552;28;20455;-40
2023/09/17 03:14:07;;;;;;;144.47;135.03;;;;;;;16.64;100.00;101506.25;4954410;29;20444;-43
2023/09/17 03:16:34;;;;;;;140.00;131.93;;;;;;;16.60;100.00;101500.50;4942254;28;20929;-42
2023/09/17 03:19:02;;;;;;;149.43;136.13;;;;;;;16.55;100.00;101501.16;4934209;29;20465;-41
2023/09/17 03:21:30;;;;;;;132.10;126.40;;;;;;;16.54;100.00;101515.69;4935462;29;20496;-42
2023/09/17 03:23:58;;;;;;;134.17;127.97;;;;;;;16.53;100.00;101513.97;4935213;29;20444;-42
2023/09/17 03:26:27;;;;;;;133.60;126.57;;;;;;;16.53;100.00;101515.84;4937338;29;20482;-41
2023/09/17 03:28:55;;;;;;;137.67;130.50;;;;;;;16.53;100.00;101518.53;4926413;29;20460;-42
2023/09/17 03:31:24;;;;;;;140.83;133.90;;;;;;;16.51;100.00;101521.47;4934727;29;21027;-41
2023/09/17 03:33:51;;;;;;;134.77;128.07;;;;;;;16.49;100.00;101520.00;4935192;29;20443;-45
2023/09/17 03:36:19;;;;;;;147.13;138.17;;;;;;;16.46;100.00;101504.28;4934885;29;20440;-42
2023/09/17 03:38:47;;;;;;;157.53;141.67;;;;;;;16.42;100.00;101508.47;4933890;29;20531;-40
2023/09/17 03:41:15;;;;;;;226.03;157.33;;;;;;;16.36;100.00;101503.94;4925343;29;20496;-43
2023/09/17 03:43:44;;;;;;;148.83;139.63;;;;;;;16.31;100.00;101498.38;4928712;29;20466;-42
2023/09/17 03:46:12;;;;;;;150.40;141.33;;;;;;;16.24;100.00;101493.03;4926748;29;20571;-47
2023/09/17 03:48:40;;;;;;;165.73;150.33;;;;;;;16.17;100.00;101489.53;4934379;29;20475;-42
2023/09/17 03:51:08;;;;;;;163.83;151.60;;;;;;;16.11;100.00;101492.25;4934323;29;20503;-43
2023/09/17 03:53:36;;;;;;;156.00;146.60;;;;;;;16.05;100.00;101496.66;4934518;29;20481;-42
2023/09/17 03:56:05;;;;;;;178.63;159.30;;;;;;;15.97;100.00;101491.50;4934109;29;20447;-40
2023/09/17 03:58:32;;;;;;;148.13;139.73;;;;;;;15.89;100.00;101499.81;4934076;29;20504;-41
2023/09/17 04:01:02;;;;;;;160.67;148.53;;;;;;;15.85;100.00;101502.13;4934361;29;20527;-42
2023/09/17 04:03:30;;;;;;;149.77;139.93;;;;;;;15.86;100.00;101505.63;4926941;29;20480;-43
2023/09/17 04:05:58;;;;;;;155.33;144.50;;;;;;;15.83;100.00;101503.38;4927555;29;20474;-41
2023/09/17 04:08:25;;;;;;;151.00;140.20;;;;;;;15.80;100.00;101507.28;4930434;29;20466;-40
2023/09/17 04:10:54;;;;;;;146.03;136.03;;;;;;;15.77;100.00;101521.16;4929038;29;20473;-41
2023/09/17 04:13:22;;;;;;;149.13;139.53;;;;;;;15.75;100.00;101514.34;4932323;29;20476;-40
2023/09/17 04:15:50;;;;;;;146.53;137.07;;;;;;;15.75;100.00;101519.72;4929009;29;20444;-41
2023/09/17 04:18:19;;;;;;;144.30;136.73;;;;;;;15.74;100.00;101516.19;4925856;29;20791;-40
2023/09/17 04:20:47;;;;;;;147.87;137.60;;;;;;;15.72;100.00;101520.16;4933777;29;20441;-42
2023/09/17 04:23:16;;;;;;;131.63;125.93;;;;;;;15.73;100.00;101519.94;4933739;29;21002;-45
2023/09/17 04:25:43;;;;;;;141.87;134.00;;;;;;;15.72;100.00;101526.34;4934042;29;20988;-44
2023/09/17 04:28:11;;;;;;;128.90;123.10;;;;;;;15.70;100.00;101517.69;4933603;29;20476;-44
2023/09/17 04:30:39;;;;;;;135.17;127.87;;;;;;;15.70;100.00;101516.84;4933975;29;20548;-44
2023/09/17 04:33:06;;;;;;;134.97;128.83;;;;;;;15.69;100.00;101516.03;4933779;29;20532;-42
2023/09/17 04:35:35;;;;;;;140.30;130.93;;;;;;;15.66;100.00;101513.75;4933353;29;20444;-40
2023/09/17 04:38:04;;;;;;;134.67;126.90;;;;;;;15.66;100.00;101516.44;4932361;29;21075;-42
2023/09/17 04:40:32;;;;;;;128.90;121.87;;;;;;;15.64;100.00;101515.84;4933399;29;20926;-40
2023/09/17 04:43:00;;;;;;;140.07;129.30;;;;;;;15.63;100.00;101519.56;4933773;29;20581;-43
2023/09/17 04:45:33;;;;;;;142.33;134.53;;;;;;;15.61;100.00;101526.19;4934028;29;20448;-43
2023/09/17 04:48:01;;;;;;;133.50;124.40;;;;;;;15.58;100.00;101530.13;4933354;28;20473;-42
2023/09/17 04:50:29;;;;;;;128.97;122.07;;;;;;;15.57;100.00;101522.25;4933294;29;20462;-42
2023/09/17 04:52:58;;;;;;;126.03;118.80;;;;;;;15.54;100.00;101528.88;4934006;29;20547;-42
2023/09/17 04:55:26;;;;;;;128.47;121.50;;;;;;;15.56;100.00;101534.06;4933704;29;20440;-45
2023/09/17 04:57:54;;;;;;;141.17;129.50;;;;;;;15.53;100.00;101529.91;4933404;28;20461;-42
2023/09/17 05:00:22;;;;;;;126.30;117.47;;;;;;;15.52;100.00;101541.72;4933429;29;20547;-43
2023/09/17 05:02:49;;;;;;;218.60;126.23;;;;;;;15.48;100.00;101545.84;4933510;29;20468;-42
2023/09/17 05:05:19;;;;;;;138.13;123.40;;;;;;;15.46;100.00;101551.41;4933524;29;20987;-42
2023/09/17 05:07:52;;;;;;;120.70;112.20;;;;;;;15.44;100.00;101555.34;4934021;28;21046;-45
2023/09/17 05:10:21;;;;;;;129.50;118.40;;;;;;;15.45;100.00;101557.81;4935454;29;20531;-41
2023/09/17 05:12:49;;;;;;;127.13;114.03;;;;;;;15.44;100.00;101552.66;4936331;29;20456;-42
2023/09/17 05:15:17;;;;;;;114.80;106.90;;;;;;;15.42;100.00;101550.16;4936358;29;20440;-40
2023/09/17 05:17:44;;;;;;;122.00;109.63;;;;;;;15.47;100.00;101549.59;4936536;28;20567;-43
2023/09/17 05:20:12;;;;;;;139.43;108.33;;;;;;;15.47;100.00;101563.03;4936830;29;20444;-42
2023/09/17 05:22:40;;;;;;;131.93;103.33;;;;;;;15.43;100.00;101559.88;4937060;29;20456;-42
2023/09/17 05:25:09;;;;;;;145.47;102.40;;;;;;;15.44;100.00;101563.41;4937446;29;20499;-41
2023/09/17 05:27:38;;;;;;;115.53;105.17;;;;;;;15.45;100.00;101565.88;4935277;28;20987;-41
2023/09/17 05:30:07;;;;;;;115.83;102.87;;;;;;;15.48;100.00;101570.03;4936168;29;20452;-40
2023/09/17 05:32:35;;;;;;;137.80;103.73;;;;;;;15.50;100.00;101579.53;4936112;29;20460;-40
2023/09/17 05:35:03;;;;;;;141.70;110.43;;;;;;;15.54;100.00;101587.19;4936514;29;20463;-40
2023/09/17 05:37:31;;;;;;;128.40;114.07;;;;;;;15.60;100.00;101581.81;4936216;28;20524;-41
2023/09/17 05:39:59;;;;;;;119.80;109.90;;;;;;;15.65;100.00;101597.34;4936133;29;20444;-40
2023/09/17 05:42:27;;;;;;;103.00;96.13;;;;;;;15.69;100.00;101598.53;4936643;29;20971;-40
2023/09/17 05:44:56;;;;;;;124.10;108.50;;;;;;;15.73;100.00;101599.78;4936522;29;20443;-41
2023/09/17 05:47:24;;;;;;;108.20;101.43;;;;;;;15.78;100.00;101594.59;4935737;28;20491;-40
2023/09/17 05:49:55;;;;;;;117.90;105.43;;;;;;;15.79;100.00;101599.78;4936501;29;20979;-43
2023/09/17 05:52:23;;;;;;;138.33;119.50;;;;;;;15.84;100.00;101607.22;4936011;29;20474;-41
2023/09/17 05:54:51;;;;;;;102.00;95.03;;;;;;;15.88;100.00;101597.69;4935499;29;20441;-40
2023/09/17 05:57:19;;;;;;;185.23;118.23;;;;;;;15.92;100.00;101596.22;4935510;29;20449;-42
2023/09/17 05:59:47;;;;;;;216.90;119.37;;;;;;;15.99;100.00;101608.63;4936540;29;20490;-42
2023/09/17 06:02:16;;;;;;;158.87;110.97;;;;;;;16.04;100.00;101611.50;4934922;29;20469;-44
2023/09/17 06:04:47;;;;;;;137.87;109.60;;;;;;;16.10;100.00;101611.72;4935664;29;20441;-40
2023/09/17 06:07:15;;;;;;;131.43;109.73;;;;;;;16.14;100.00;101613.75;4941644;28;20480;-41
2023/09/17 06:09:43;;;;;;;124.43;111.80;;;;;;;16.24;100.00;101618.69;4936129;29;20507;-42
2023/09/17 06:12:12;;;;;;;300.13;131.47;;;;;;;16.30;100.00;101612.47;4943277;29;20463;-43
2023/09/17 06:14:40;;;;;;;91.17;85.60;;;;;;;16.43;100.00;101620.47;4927553;29;20449;-42
2023/09/17 06:17:08;;;;;;;468.60;145.67;;;;;;;16.51;100.00;101618.38;4934491;29;20479;-41
2023/09/17 06:19:37;;;;;;;86.27;79.27;;;;;;;16.43;100.00;101607.84;4934484;29;20801;-42
2023/09/17 06:22:05;;;;;;;365.13;113.00;;;;;;;16.54;100.00;101609.91;4935452;29;20460;-43
2023/09/17 06:24:34;;;;;;;173.03;104.80;;;;;;;16.65;100.00;101621.03;4935124;29;20480;-42
2023/09/17 06:27:01;;;;;;;151.67;93.57;;;;;;;16.70;100.00;101613.94;4938676;29;20444;-44
2023/09/17 06:29:29;;;;;;;118.07;99.20;;;;;;;16.81;100.00;101618.69;4934634;29;20459;-40
2023/09/17 06:31:57;;;;;;;174.97;102.50;;;;;;;16.87;100.00;101631.28;4935281;29;20491;-40
2023/09/17 06:34:25;;;;;;;255.20;110.60;;;;;;;16.95;100.00;101624.81;4935435;29;20483;-43
2023/09/17 06:36:54;;;;;;;153.10;112.60;;;;;;;17.05;100.00;101625.16;4935669;29;20444;-43
2023/09/17 06:39:22;;;;;;;186.53;100.53;;;;;;;17.19;100.00;101620.50;4933765;29;20491;-43
2023/09/17 06:41:49;;;;;;;139.90;91.07;;;;;;;17.32;100.00;101617.72;4935300;29;20456;-43
2023/09/17 06:44:18;;;;;;;105.03;80.33;;;;;;;17.46;100.00;101616.53;4927483;29;20813;-44
2023/09/17 06:46:46;;;;;;;118.73;76.10;;;;;;;17.66;100.00;101617.22;4935235;29;20533;-40
2023/09/17 06:49:14;;;;;;;256.17;87.03;;;;;;;17.88;100.00;101615.75;4926540;29;20483;-41
2023/09/17 06:51:41;;;;;;;127.07;65.40;;;;;;;17.99;100.00;101609.63;4927377;29;20460;-43
2023/09/17 06:54:10;;;;;;;54.97;50.63;;;;;;;18.11;100.00;101612.38;4931587;29;20440;-44
2023/09/17 06:56:38;;;;;;;56.73;51.27;;;;;;;18.22;100.00;101609.75;4934993;29;20480;-42
2023/09/17 06:59:06;;;;;;;57.63;52.47;;;;;;;18.39;100.00;101611.84;4934093;29;20479;-42
2023/09/17 07:01:34;;;;;;;61.33;52.30;;;;;;;18.57;100.00;101601.06;4933952;29;21122;-41
2023/09/17 07:04:02;;;;;;;86.37;56.80;;;;;;;18.73;100.00;101595.84;4933575;29;20476;-43
2023/09/17 07:06:29;;;;;;;47.97;44.50;;;;;;;19.03;100.00;101592.28;4934255;29;20940;-44
2023/09/17 07:08:57;;;;;;;67.23;47.80;;;;;;;19.17;100.00;101591.03;4933992;29;20531;-43
2023/09/17 07:11:26;;;;;;;83.93;51.03;;;;;;;19.33;100.00;101591.16;4934899;29;21047;-41
2023/09/17 07:13:55;;;;;;;48.30;44.23;;;;;;;19.53;100.00;101590.88;4935486;29;20456;-47
2023/09/17 07:16:27;;;;;;;52.37;47.03;;;;;;;19.56;100.00;101584.16;4931489;29;20452;-42
2023/09/17 07:18:55;;;;;;;43.23;40.03;;;;;;;19.75;100.00;101588.38;4924730;29;21087;-40
2023/09/17 07:21:22;;;;;;;49.13;43.73;;;;;;;19.86;100.00;101585.66;4927350;29;20550;-47
2023/09/17 07:23:50;;;;;;;48.53;39.47;;;;;;;19.83;100.00;101582.63;4933981;29;20503;-40
2023/09/17 07:26:20;;;;;;;53.87;40.33;;;;;;;19.98;100.00;101587.53;4931695;29;20456;-45
2023/09/17 07:28:48;;;;;;;114.60;54.33;;;;;;;19.94;100.00;101579.06;4933906;29;21226;-41
2023/09/17 07:31:16;;;;;;;69.07;50.83;;;;;;;19.94;100.00;101576.34;4933372;29;20464;-40
2023/09/17 07:33:44;;;;;;;60.53;45.77;;;;;;;20.05;100.00;101588.22;4925942;29;20482;-43
2023/09/17 07:36:13;;;;;;;40.90;37.70;;;;;;;19.79;100.00;101587.69;4931620;29;20447;-44
2023/09/17 07:38:41;;;;;;;49.70;45.87;;;;;;;19.72;100.00;101586.97;4933816;29;20511;-42
2023/09/17 07:41:09;;;;;;;60.47;39.80;;;;;;;19.69;100.00;101592.84;4933419;29;20492;-43
2023/09/17 07:43:37;;;;;;;91.17;52.47;;;;;;;19.54;100.00;101595.19;4933693;29;20444;-44
2023/09/17 07:46:06;;;;;;;47.13;43.23;;;;;;;19.59;100.00;101599.91;4933965;29;20439;-43
2023/09/17 07:48:34;;;;;;;93.20;45.73;;;;;;;19.60;100.00;101601.53;4924792;29;20618;-43
2023/09/17 07:51:02;;;;;;;47.57;38.73;;;;;;;19.42;100.00;101601.66;4933723;29;20640;-40
2023/09/17 07:53:30;;;;;;;47.33;43.00;;;;;;;19.34;100.00;101603.63;4925118;29;20504;-42
2023/09/17 07:55:57;;;;;;;50.17;40.27;;;;;;;19.46;100.00;101603.69;4933150;29;20447;-47
2023/09/17 07:58:25;;;;;;;44.83;40.70;;;;;;;19.53;100.00;101606.28;4924557;29;20998;-45
2023/09/17 08:00:54;;;;;;;43.10;39.50;;;;;;;19.44;100.00;101613.91;4932629;29;20448;-43
2023/09/17 08:03:23;;;;;;;48.07;43.33;;;;;;;19.52;100.00;101610.03;4932838;29;20936;-41
2023/09/17 08:05:52;;;;;;;46.13;42.17;;;;;;;19.42;100.00;101615.19;4928245;29;20480;-45
2023/09/17 08:08:20;;;;;;;57.73;46.87;;;;;;;19.30;100.00;101612.44;4929800;29;20876;-45
2023/09/17 08:10:49;;;;;;;46.60;42.30;;;;;;;19.22;100.00;101610.06;4931318;29;20530;-42
2023/09/17 08:13:17;;;;;;;61.80;47.07;;;;;;;19.20;100.00;101618.41;4930291;29;20444;-45
2023/09/17 08:15:49;;;;;;;52.87;48.37;;;;;;;19.34;100.00;101627.16;4933350;29;20476;-42
2023/09/17 08:18:17;;;;;;;46.60;43.30;;;;;;;19.64;100.00;101627.09;4932266;29;20971;-41
2023/09/17 08:20:46;;;;;;;44.00;40.57;;;;;;;19.99;100.00;101622.47;4928314;29;20445;-44
2023/09/17 08:23:14;;;;;;;44.07;41.43;;;;;;;19.96;100.00;101620.25;4922364;29;20529;-40
2023/09/17 08:25:42;;;;;;;45.57;41.03;;;;;;;20.28;100.00;101626.13;4932538;29;20463;-41
2023/09/17 08:28:13;;;;;;;47.47;44.23;;;;;;;20.39;100.00;101617.97;4924983;29;20473;-44
2023/09/17 08:30:41;;;;;;;45.90;42.70;;;;;;;20.42;100.00;101617.50;4931315;29;20440;-40
2023/09/17 08:33:11;;;;;;;45.70;42.57;;;;;;;20.63;100.00;101610.59;4931933;29;20436;-41
2023/09/17 08:35:39;;;;;;;47.50;44.50;;;;;;;20.85;100.00;101602.56;4932271;29;20568;-42
2023/09/17 08:38:10;;;;;;;47.53;44.63;;;;;;;20.24;100.00;101614.91;4923816;29;20473;-43
2023/09/17 08:40:40;;;;;;;47.70;45.00;;;;;;;20.42;100.00;101611.25;4931044;29;20460;-43
2023/09/17 08:43:09;;;;;;;53.20;50.07;;;;;;;20.36;100.00;101610.31;4931827;29;20901;-42
2023/09/17 08:45:37;;;;;;;54.13;51.13;;;;;;;20.14;100.00;101627.41;4932666;29;20546;-40
2023/09/17 08:48:06;;;;;;;53.60;50.43;;;;;;;20.14;100.00;101622.81;4926310;29;20880;-40
2023/09/17 08:50:36;;;;;;;55.90;52.50;;;;;;;20.26;100.00;101622.81;4931950;29;20446;-41
2023/09/17 08:53:10;;;;;;;56.50;52.90;;;;;;;20.25;100.00;101622.00;4931522;29;20503;-42
2023/09/17 08:55:38;;;;;;;55.17;52.07;;;;;;;20.29;100.00;101620.47;4931142;29;20881;-39
2023/09/17 08:58:12;;;;;;;57.60;54.17;;;;;;;20.27;100.00;101628.00;4927542;29;20475;-40
2023/09/17 09:00:42;;;;;;;60.07;56.57;;;;;;;20.19;100.00;101622.91;4932224;29;20448;-43
2023/09/17 09:03:13;;;;;;;55.47;52.13;;;;;;;20.29;100.00;101616.94;4933738;29;20440;-41
2023/09/17 09:05:44;;;;;;;60.60;57.00;;;;;;;20.29;100.00;101617.75;4926586;29;20436;-42
2023/09/17 09:08:14;;;;;;;55.37;52.10;;;;;;;20.33;100.00;101618.09;4930403;28;20555;-41
2023/09/17 09:10:42;;;;;;;57.10;53.40;;;;;;;20.51;100.00;101619.81;4929686;29;20473;-43
2023/09/17 09:13:10;;;;;;;53.70;50.50;;;;;;;20.75;100.00;101608.66;4928949;29;20475;-41
2023/09/17 09:15:38;;;;;;;47.40;44.20;;;;;;;21.26;100.00;101601.44;4925774;29;20445;-44
2023/09/17 09:18:08;;;;;;;43.60;41.00;;;;;;;21.64;100.00;101596.06;4926717;29;20471;-42
2023/09/17 09:20:37;;;;;;;48.37;45.40;;;;;;;21.87;100.00;101586.88;4922289;29;20432;-39
2023/09/17 09:23:05;;;;;;;46.73;43.77;;;;;;;22.20;100.00;101589.53;4927030;29;20829;-44
2023/09/17 09:25:35;;;;;;;50.30;46.90;;;;;;;22.35;100.00;101589.72;4916991;29;20471;-43
2023/09/17 09:28:03;;;;;;;48.87;45.87;;;;;;;22.50;100.00;101587.16;4927954;28;21057;-44
2023/09/17 09:30:31;;;;;;;48.23;45.43;;;;;;;22.15;100.00;101586.75;4951787;29;20570;-40
2023/09/17 09:32:59;;;;;;;51.67;48.53;;;;;;;22.56;100.00;101585.31;4944140;28;20509;-42
2023/09/17 09:35:27;;;;;;;51.20;48.37;;;;;;;22.72;100.00;101583.63;4935964;29;20845;-42
2023/09/17 09:37:55;;;;;;;52.90;49.90;;;;;;;22.48;100.00;101583.06;4944862;28;20506;-42
2023/09/17 09:40:24;;;;;;;45.93;43.33;;;;;;;22.33;100.00;101586.44;4951857;28;20435;-40
2023/09/17 09:42:53;;;;;;;50.10;47.13;;;;;;;22.51;100.00;101577.13;4944269;28;20459;-43
2023/09/17 09:45:21;;;;;;;44.97;41.93;;;;;;;22.71;100.00;101571.09;4945064;28;20865;-41
2023/09/17 09:47:50;;;;;;;41.70;39.33;;;;;;;23.01;100.00;101563.22;4937952;29;20460;-42
2023/09/17 09:50:22;;;;;;;44.03;41.37;;;;;;;23.20;100.00;101567.19;4932946;29;20539;-44
2023/09/17 09:52:49;;;;;;;40.63;38.43;;;;;;;23.39;100.00;101563.00;4925618;29;21038;-44
2023/09/17 09:55:17;;;;;;;36.13;34.10;;;;;;;23.68;100.00;101558.84;4936262;29;20455;-41
2023/09/17 09:57:46;;;;;;;38.03;35.70;;;;;;;23.97;100.00;101547.56;4934613;29;20869;-43
2023/09/17 10:00:20;;;;;;;33.47;31.53;;;;;;;23.86;100.00;101546.69;4936294;29;20833;-40
2023/09/17 10:02:48;;;;;;;33.30;31.30;;;;;;;24.34;100.00;101545.56;4936302;29;20887;-42
2023/09/17 10:05:16;;;;;;;33.27;31.37;;;;;;;24.78;100.00;101540.44;4928959;29;20440;-45
2023/09/17 10:07:46;;;;;;;33.73;31.63;;;;;;;25.06;100.00;101537.19;4936155;29;20468;-44
2023/09/17 10:10:15;;;;;;;31.80;30.00;;;;;;;25.26;100.00;101522.72;4936360;29;20480;-41
2023/09/17 10:12:43;;;;;;;31.37;29.67;;;;;;;25.22;100.00;101527.91;4934073;29;20902;-42
2023/09/17 10:15:13;;;;;;;30.80;28.90;;;;;;;25.31;100.00;101526.25;4931261;29;20543;-43
2023/09/17 10:17:42;;;;;;;29.90;28.20;;;;;;;25.67;100.00;101532.50;4928329;29;20461;-43
2023/09/17 10:20:12;;;;;;;31.10;29.10;;;;;;;25.80;100.00;101523.72;4936267;29;20523;-44
2023/09/17 10:22:40;;;;;;;30.00;28.30;;;;;;;25.63;100.00;101527.84;4928406;29;20510;-40
2023/09/17 10:25:10;;;;;;;27.53;26.03;;;;;;;25.36;100.00;101532.81;4936307;29;20440;-40
2023/09/17 10:27:38;;;;;;;29.77;27.70;;;;;;;25.45;100.00;101525.69;4940924;29;20475;-41
2023/09/17 10:30:08;;;;;;;25.40;23.90;;;;;;;25.66;100.00;101521.81;4935725;29;20483;-41
2023/09/17 10:32:36;;;;;;;23.90;22.50;;;;;;;25.75;100.00;101529.19;4936116;29;20884;-43
2023/09/17 10:35:06;;;;;;;23.23;21.73;;;;;;;25.74;100.00;101527.56;4936075;29;20440;-42
2023/09/17 10:37:36;;;;;;;20.73;19.57;;;;;;;25.88;100.00;101521.50;4935553;29;20519;-42
2023/09/17 10:40:09;;;;;;;21.53;20.23;;;;;;;26.01;100.00;101520.91;4927912;29;20448;-42
2023/09/17 10:42:38;;;;;;;17.50;16.40;;;;;;;26.33;100.00;101521.28;4935965;29;20869;-43
2023/09/17 10:45:08;;;;;;;17.10;15.90;;;;;;;26.45;100.00;101523.69;4935893;29;20955;-39
2023/09/17 10:47:37;;;;;;;15.90;14.80;;;;;;;26.46;100.00;101520.69;4935420;29;20460;-41
2023/09/17 10:50:07;;;;;;;15.60;14.70;;;;;;;26.47;100.00;101522.28;4935681;29;20480;-45
2023/09/17 10:52:36;;;;;;;14.53;13.57;;;;;;;26.31;100.00;101507.88;4927996;29;20460;-41
2023/09/17 10:55:07;;;;;;;15.27;14.23;;;;;;;26.42;100.00;101511.41;4935719;29;20692;-42
2023/09/17 10:57:40;;;;;;;14.93;14.13;;;;;;;26.44;100.00;101514.66;4935382;29;20827;-42
2023/09/17 11:00:13;;;;;;;15.10;14.10;;;;;;;26.47;100.00;101516.81;4935559;29;20436;-43